Time,TemperatureF,DewpointF,PressureIn,WindDirection,WindDirectionDegrees,WindSpeedMPH,WindSpeedGustMPH,Humidity,HourlyPrecipIn,Conditions,Clouds,dailyrainin,SoftwareType,DateUTC
2013-07-10 00:01:00,70.9,69.1,30.10,SW,232,2.0,3.0,94,0.00,,,0.00,meteohub,2013-07-10 04:01:00,
2013-07-10 00:02:00,70.9,69.1,30.10,SW,232,0.0,3.0,94,0.00,,,0.00,meteohub,2013-07-10 04:02:00,
2013-07-10 00:04:00,70.9,69.1,30.10,SW,232,1.0,3.0,94,0.00,,,0.00,meteohub,2013-07-10 04:04:00,
2013-07-10 00:09:00,70.9,69.1,30.09,SW,232,1.0,3.0,94,0.00,,,0.00,meteohub,2013-07-10 04:09:00,
2013-07-10 00:14:00,70.9,69.1,30.09,SW,232,2.0,4.0,94,0.00,,,0.00,meteohub,2013-07-10 04:14:00,
2013-07-10 00:19:00,70.9,69.1,30.09,SW,232,2.0,4.0,94,0.00,,,0.00,meteohub,2013-07-10 04:19:00,
2013-07-10 00:24:00,70.9,69.1,30.09,SW,232,1.0,4.0,94,0.00,,,0.00,meteohub,2013-07-10 04:24:00,
2013-07-10 00:29:00,70.9,69.1,30.09,SW,232,3.0,4.0,94,0.00,,,0.00,meteohub,2013-07-10 04:29:00,
2013-07-10 00:35:00,70.9,69.1,30.09,SW,232,2.0,4.0,94,0.00,,,0.00,meteohub,2013-07-10 04:35:00,
2013-07-10 00:40:00,70.9,69.1,30.09,SW,232,4.0,5.0,94,0.00,,,0.00,meteohub,2013-07-10 04:40:00,
2013-07-10 00:45:00,70.9,69.1,30.09,SW,230,2.0,5.0,94,0.00,,,0.00,meteohub,2013-07-10 04:45:00,
2013-07-10 00:50:00,70.9,69.1,30.09,WSW,237,2.0,5.0,94,0.00,,,0.00,meteohub,2013-07-10 04:50:00,
2013-07-10 00:55:00,70.9,69.1,30.09,WSW,237,3.0,6.0,94,0.00,,,0.00,meteohub,2013-07-10 04:55:00,
2013-07-10 01:00:00,70.7,68.9,30.08,SW,236,4.0,6.0,94,0.00,,,0.00,meteohub,2013-07-10 05:00:00,
2013-07-10 01:05:00,70.7,69.3,30.08,WSW,237,3.0,5.0,95,0.00,,,0.00,meteohub,2013-07-10 05:05:00,
2013-07-10 01:10:00,70.7,69.3,30.08,WSW,237,3.0,5.0,95,0.00,,,0.00,meteohub,2013-07-10 05:10:00,
2013-07-10 01:15:00,70.7,69.3,30.08,WSW,237,4.0,5.0,95,0.00,,,0.00,meteohub,2013-07-10 05:15:00,
2013-07-10 01:20:00,70.7,69.3,30.08,WSW,237,2.0,5.0,95,0.00,,,0.00,meteohub,2013-07-10 05:20:00,
2013-07-10 01:25:00,70.7,69.3,30.08,WSW,237,2.0,4.0,95,0.00,,,0.00,meteohub,2013-07-10 05:25:00,
2013-07-10 01:30:00,70.7,69.3,30.08,SW,236,1.0,4.0,95,0.00,,,0.00,meteohub,2013-07-10 05:30:00,
2013-07-10 01:35:00,70.7,69.3,30.08,SW,236,3.0,5.0,95,0.00,,,0.00,meteohub,2013-07-10 05:35:00,
2013-07-10 01:40:00,70.7,69.3,30.07,SW,236,3.0,5.0,95,0.00,,,0.00,meteohub,2013-07-10 05:40:00,
2013-07-10 01:45:00,70.5,69.1,30.08,SW,236,3.0,5.0,95,0.00,,,0.00,meteohub,2013-07-10 05:45:00,
2013-07-10 01:51:00,70.5,69.1,30.07,WSW,239,5.0,5.0,95,0.00,,,0.00,meteohub,2013-07-10 05:51:00,
2013-07-10 01:56:00,70.5,69.1,30.07,SW,235,2.0,8.0,95,0.00,,,0.00,meteohub,2013-07-10 05:56:00,
2013-07-10 02:01:00,70.3,68.9,30.07,WSW,241,3.0,8.0,95,0.00,,,0.00,meteohub,2013-07-10 06:01:00,
2013-07-10 02:06:00,70.3,69.1,30.07,WSW,241,1.0,8.0,96,0.00,,,0.00,meteohub,2013-07-10 06:06:00,
2013-07-10 02:11:00,70.3,69.1,30.06,WSW,238,4.0,6.0,96,0.00,,,0.00,meteohub,2013-07-10 06:11:00,
2013-07-10 02:16:00,70.3,69.1,30.06,WSW,238,2.0,6.0,96,0.00,,,0.00,meteohub,2013-07-10 06:16:00,
2013-07-10 02:21:00,70.3,69.1,30.06,WSW,238,1.0,5.0,96,0.00,,,0.00,meteohub,2013-07-10 06:21:00,
2013-07-10 02:26:00,70.3,69.1,30.06,WSW,238,2.0,5.0,96,0.00,,,0.00,meteohub,2013-07-10 06:26:00,
2013-07-10 02:31:00,70.3,69.1,30.06,WSW,238,0.0,4.0,96,0.00,,,0.00,meteohub,2013-07-10 06:31:00,
2013-07-10 02:36:00,70.5,69.3,30.06,WSW,238,2.0,4.0,96,0.00,,,0.00,meteohub,2013-07-10 06:36:00,
2013-07-10 02:41:00,70.5,69.3,30.06,WSW,238,0.0,4.0,96,0.00,,,0.00,meteohub,2013-07-10 06:41:00,
2013-07-10 02:46:00,70.5,69.3,30.05,WSW,238,0.0,3.0,96,0.00,,,0.00,meteohub,2013-07-10 06:46:00,
2013-07-10 02:51:00,70.5,69.3,30.05,WSW,238,0.0,3.0,96,0.00,,,0.00,meteohub,2013-07-10 06:51:00,
2013-07-10 02:56:00,70.5,69.3,30.05,WSW,238,1.0,2.0,96,0.00,,,0.00,meteohub,2013-07-10 06:56:00,
2013-07-10 02:58:00,70.7,69.4,30.05,WSW,238,1.0,2.0,96,0.00,,,0.00,meteohub,2013-07-10 06:58:00,
2013-07-10 03:03:00,70.7,69.4,30.05,WSW,238,2.0,3.0,96,0.00,,,0.00,meteohub,2013-07-10 07:03:00,
2013-07-10 03:08:00,70.9,69.6,30.05,WSW,238,2.0,3.0,96,0.00,,,0.00,meteohub,2013-07-10 07:08:00,
2013-07-10 03:13:00,70.9,69.6,30.05,WSW,238,2.0,3.0,96,0.00,,,0.00,meteohub,2013-07-10 07:13:00,
2013-07-10 03:18:00,70.9,69.6,30.05,WSW,238,3.0,3.0,96,0.00,,,0.00,meteohub,2013-07-10 07:18:00,
2013-07-10 03:23:00,70.9,69.6,30.05,WSW,238,0.0,3.0,96,0.00,,,0.00,meteohub,2013-07-10 07:23:00,
2013-07-10 03:28:00,70.9,69.6,30.05,WSW,238,1.0,4.0,96,0.00,,,0.00,meteohub,2013-07-10 07:28:00,
2013-07-10 03:33:00,71.1,69.8,30.05,WSW,238,0.0,4.0,96,0.00,,,0.00,meteohub,2013-07-10 07:33:00,
2013-07-10 03:38:00,71.1,69.8,30.05,WSW,238,1.0,4.0,96,0.00,,,0.00,meteohub,2013-07-10 07:38:00,
2013-07-10 03:44:00,71.1,69.8,30.05,WSW,238,1.0,3.0,96,0.00,,,0.00,meteohub,2013-07-10 07:44:00,
2013-07-10 03:49:00,71.1,70.2,30.04,WSW,238,3.0,3.0,97,0.00,,,0.00,meteohub,2013-07-10 07:49:00,
2013-07-10 03:54:00,71.1,70.2,30.04,WSW,238,1.0,3.0,97,0.00,,,0.00,meteohub,2013-07-10 07:54:00,
2013-07-10 03:59:00,71.1,70.2,30.04,WSW,238,1.0,3.0,97,0.00,,,0.00,meteohub,2013-07-10 07:59:00,
2013-07-10 04:04:00,71.1,70.2,30.04,WSW,238,0.0,3.0,97,0.00,,,0.00,meteohub,2013-07-10 08:04:00,
2013-07-10 04:09:00,71.1,70.2,30.04,WSW,238,0.0,3.0,97,0.00,,,0.00,meteohub,2013-07-10 08:09:00,
2013-07-10 04:14:00,71.2,70.3,30.04,WSW,238,1.0,1.0,97,0.00,,,0.00,meteohub,2013-07-10 08:14:00,
2013-07-10 04:19:00,71.2,70.3,30.04,WSW,238,0.0,1.0,97,0.00,,,0.00,meteohub,2013-07-10 08:19:00,
2013-07-10 04:24:00,71.2,70.3,30.04,WSW,238,0.0,2.0,97,0.00,,,0.00,meteohub,2013-07-10 08:24:00,
2013-07-10 04:29:00,71.2,70.3,30.04,WSW,238,0.0,2.0,97,0.00,,,0.00,meteohub,2013-07-10 08:29:00,
2013-07-10 04:34:00,71.2,70.3,30.04,WSW,238,0.0,1.0,97,0.00,,,0.00,meteohub,2013-07-10 08:34:00,
2013-07-10 04:39:00,71.4,70.5,30.04,WSW,238,0.0,0.0,97,0.00,,,0.00,meteohub,2013-07-10 08:39:00,
2013-07-10 04:44:00,71.4,70.5,30.04,WSW,238,0.0,1.0,97,0.00,,,0.00,meteohub,2013-07-10 08:44:00,
2013-07-10 04:49:00,71.4,70.5,30.04,WSW,238,0.0,1.0,97,0.00,,,0.00,meteohub,2013-07-10 08:49:00,
2013-07-10 04:55:00,71.4,70.5,30.04,WSW,238,2.0,2.0,97,0.00,,,0.00,meteohub,2013-07-10 08:55:00,
2013-07-10 05:00:00,71.6,70.7,30.04,WSW,238,2.0,3.0,97,0.00,,,0.00,meteohub,2013-07-10 09:00:00,
2013-07-10 05:05:00,71.8,70.9,30.04,WSW,238,1.0,3.0,97,0.00,,,0.00,meteohub,2013-07-10 09:05:00,
2013-07-10 05:10:00,71.8,70.9,30.04,WSW,238,2.0,3.0,97,0.00,,,0.00,meteohub,2013-07-10 09:10:00,
2013-07-10 05:15:00,72.0,71.1,30.04,WSW,238,0.0,4.0,97,0.00,,,0.00,meteohub,2013-07-10 09:15:00,
2013-07-10 05:20:00,72.0,71.1,30.04,WSW,238,0.0,4.0,97,0.00,,,0.00,meteohub,2013-07-10 09:20:00,
2013-07-10 05:25:00,72.0,71.1,30.04,WSW,238,0.0,4.0,97,0.00,,,0.00,meteohub,2013-07-10 09:25:00,
2013-07-10 05:30:00,72.1,71.2,30.04,WSW,238,0.0,3.0,97,0.00,,,0.00,meteohub,2013-07-10 09:30:00,
2013-07-10 05:35:00,72.1,71.2,30.04,WSW,238,0.0,3.0,97,0.00,,,0.00,meteohub,2013-07-10 09:35:00,
2013-07-10 05:40:00,72.3,71.4,30.04,WSW,238,1.0,3.0,97,0.00,,,0.00,meteohub,2013-07-10 09:40:00,
2013-07-10 05:45:00,72.3,71.4,30.04,WSW,238,2.0,3.0,97,0.00,,,0.00,meteohub,2013-07-10 09:45:00,
2013-07-10 05:50:00,72.7,71.8,30.04,WSW,238,3.0,3.0,97,0.00,,,0.00,meteohub,2013-07-10 09:50:00,
2013-07-10 05:55:00,72.7,71.8,30.04,WSW,238,3.0,3.0,97,0.00,,,0.00,meteohub,2013-07-10 09:55:00,
2013-07-10 06:00:00,72.7,71.8,30.04,WSW,238,3.0,4.0,97,0.00,,,0.00,meteohub,2013-07-10 10:00:00,
2013-07-10 06:06:00,72.7,71.8,30.04,WSW,238,2.0,4.0,97,0.00,,,0.00,meteohub,2013-07-10 10:06:00,
2013-07-10 06:11:00,72.9,72.0,30.04,WSW,238,0.0,4.0,97,0.00,,,0.00,meteohub,2013-07-10 10:11:00,
2013-07-10 06:16:00,72.9,72.0,30.04,WSW,238,2.0,4.0,97,0.00,,,0.00,meteohub,2013-07-10 10:16:00,
2013-07-10 06:21:00,72.9,72.0,30.04,West,271,4.0,5.0,97,0.00,,,0.00,meteohub,2013-07-10 10:21:00,
2013-07-10 06:26:00,72.9,72.0,30.04,West,275,3.0,5.0,97,0.00,,,0.00,meteohub,2013-07-10 10:26:00,
2013-07-10 06:31:00,72.9,72.0,30.04,West,275,2.0,4.0,97,0.00,,,0.00,meteohub,2013-07-10 10:31:00,
2013-07-10 06:36:00,72.9,72.0,30.04,West,275,2.0,4.0,97,0.00,,,0.00,meteohub,2013-07-10 10:36:00,
2013-07-10 06:41:00,73.0,72.1,30.04,West,275,2.0,4.0,97,0.00,,,0.00,meteohub,2013-07-10 10:41:00,
2013-07-10 06:46:00,73.0,72.1,30.04,West,275,2.0,4.0,97,0.00,,,0.00,meteohub,2013-07-10 10:46:00,
2013-07-10 06:51:00,73.0,72.1,30.04,West,275,2.0,4.0,97,0.00,,,0.00,meteohub,2013-07-10 10:51:00,
2013-07-10 06:56:00,73.0,72.1,30.04,West,259,4.0,6.0,97,0.00,,,0.00,meteohub,2013-07-10 10:56:00,
2013-07-10 07:01:00,73.0,72.1,30.04,WSW,251,5.0,7.0,97,0.00,,,0.00,meteohub,2013-07-10 11:01:00,
2013-07-10 07:06:00,73.2,72.3,30.04,WSW,256,2.0,8.0,97,0.00,,,0.00,meteohub,2013-07-10 11:06:00,
2013-07-10 07:11:00,73.2,72.3,30.03,West,261,5.0,8.0,97,0.00,,,0.00,meteohub,2013-07-10 11:11:00,
2013-07-10 07:16:00,73.2,72.3,30.03,WSW,250,5.0,5.0,97,0.00,,,0.00,meteohub,2013-07-10 11:16:00,
2013-07-10 07:22:00,73.2,72.3,30.04,WSW,242,3.0,8.0,97,0.01,,,0.01,meteohub,2013-07-10 11:22:00,
2013-07-10 07:27:00,73.6,72.7,30.04,WSW,248,6.0,8.0,97,0.01,,,0.01,meteohub,2013-07-10 11:27:00,
2013-07-10 07:32:00,73.6,72.7,30.04,NNW,327,5.0,8.0,97,0.01,,,0.01,meteohub,2013-07-10 11:32:00,
2013-07-10 07:37:00,73.6,72.7,30.04,WNW,291,4.0,8.0,97,0.01,,,0.01,meteohub,2013-07-10 11:37:00,
2013-07-10 07:42:00,73.6,72.7,30.04,West,275,3.0,8.0,97,0.01,,,0.01,meteohub,2013-07-10 11:42:00,
2013-07-10 07:47:00,73.6,72.7,30.04,West,273,3.0,8.0,97,0.01,,,0.01,meteohub,2013-07-10 11:47:00,
2013-07-10 07:52:00,73.4,72.5,30.03,West,259,2.0,7.0,97,0.01,,,0.01,meteohub,2013-07-10 11:52:00,
2013-07-10 07:57:00,73.6,72.7,30.04,WSW,252,3.0,7.0,97,0.01,,,0.01,meteohub,2013-07-10 11:57:00,
2013-07-10 08:02:00,73.6,72.7,30.04,West,273,4.0,7.0,97,0.01,,,0.01,meteohub,2013-07-10 12:02:00,
2013-07-10 08:07:00,73.6,72.7,30.04,West,263,6.0,7.0,97,0.01,,,0.01,meteohub,2013-07-10 12:07:00,
2013-07-10 08:12:00,73.6,72.7,30.03,SW,231,5.0,7.0,97,0.01,,,0.01,meteohub,2013-07-10 12:12:00,
2013-07-10 08:17:00,73.9,73.0,30.03,West,269,4.0,8.0,97,0.01,,,0.01,meteohub,2013-07-10 12:17:00,
2013-07-10 08:22:00,73.9,73.0,30.03,SW,233,6.0,8.0,97,0.00,,,0.01,meteohub,2013-07-10 12:22:00,
2013-07-10 08:27:00,73.8,72.5,30.03,WSW,242,5.0,8.0,96,0.00,,,0.01,meteohub,2013-07-10 12:27:00,
2013-07-10 08:32:00,73.8,72.9,30.03,SW,219,5.0,8.0,97,0.00,,,0.01,meteohub,2013-07-10 12:32:00,
2013-07-10 08:37:00,73.9,72.7,30.02,WNW,285,3.0,9.0,96,0.00,,,0.01,meteohub,2013-07-10 12:37:00,
2013-07-10 08:42:00,73.9,72.7,30.02,West,269,4.0,9.0,96,0.00,,,0.01,meteohub,2013-07-10 12:42:00,
2013-07-10 08:47:00,73.9,72.7,30.03,West,266,4.0,9.0,96,0.00,,,0.01,meteohub,2013-07-10 12:47:00,
2013-07-10 08:52:00,74.1,72.9,30.02,WSW,254,1.0,8.0,96,0.00,,,0.01,meteohub,2013-07-10 12:52:00,
2013-07-10 08:57:00,74.1,72.9,30.02,WSW,257,4.0,8.0,96,0.00,,,0.01,meteohub,2013-07-10 12:57:00,
2013-07-10 09:02:00,74.5,73.2,30.02,WSW,242,4.0,8.0,96,0.00,,,0.01,meteohub,2013-07-10 13:02:00,
2013-07-10 09:07:00,74.7,73.4,30.02,WNW,301,5.0,8.0,96,0.00,,,0.01,meteohub,2013-07-10 13:07:00,
2013-07-10 09:12:00,74.7,73.2,30.02,WSW,249,5.0,9.0,95,0.00,,,0.01,meteohub,2013-07-10 13:12:00,
2013-07-10 09:17:00,75.0,73.4,30.02,West,262,5.0,10.0,95,0.00,,,0.01,meteohub,2013-07-10 13:17:00,
2013-07-10 09:22:00,75.4,73.6,30.01,WSW,250,10.0,11.0,94,0.00,,,0.01,meteohub,2013-07-10 13:22:00,
2013-07-10 09:27:00,75.4,73.6,30.01,NW,319,10.0,11.0,94,0.00,,,0.01,meteohub,2013-07-10 13:27:00,
2013-07-10 09:32:00,75.2,73.4,30.01,WNW,301,5.0,11.0,94,0.00,,,0.01,meteohub,2013-07-10 13:32:00,
2013-07-10 09:37:00,75.0,73.2,30.01,WNW,282,5.0,12.0,94,0.00,,,0.01,meteohub,2013-07-10 13:37:00,
2013-07-10 09:42:00,74.5,72.7,30.01,West,272,8.0,12.0,94,0.00,,,0.01,meteohub,2013-07-10 13:42:00,
2013-07-10 09:47:00,74.5,72.7,30.01,West,279,4.0,13.0,94,0.00,,,0.01,meteohub,2013-07-10 13:47:00,
2013-07-10 09:52:00,74.5,72.7,30.01,WSW,238,6.0,13.0,94,0.00,,,0.01,meteohub,2013-07-10 13:52:00,
2013-07-10 09:57:00,74.7,72.9,30.01,West,262,5.0,13.0,94,0.00,,,0.01,meteohub,2013-07-10 13:57:00,
2013-07-10 10:02:00,74.8,73.0,30.01,WSW,258,7.0,11.0,94,0.00,,,0.01,meteohub,2013-07-10 14:02:00,
2013-07-10 10:07:00,75.2,73.4,30.01,WNW,292,3.0,11.0,94,0.00,,,0.01,meteohub,2013-07-10 14:07:00,
2013-07-10 10:12:00,75.6,73.8,30.01,WNW,293,3.0,10.0,94,0.00,,,0.01,meteohub,2013-07-10 14:12:00,
2013-07-10 10:17:00,75.6,73.8,30.01,WSW,253,6.0,10.0,94,0.00,,,0.01,meteohub,2013-07-10 14:17:00,
2013-07-10 10:23:00,75.2,73.0,30.01,West,267,10.0,10.0,93,0.00,,,0.01,meteohub,2013-07-10 14:23:00,
2013-07-10 10:28:00,75.0,73.2,30.00,WNW,300,5.0,12.0,94,0.00,,,0.01,meteohub,2013-07-10 14:28:00,
2013-07-10 10:33:00,75.2,73.4,30.00,SW,228,5.0,12.0,94,0.00,,,0.01,meteohub,2013-07-10 14:33:00,
2013-07-10 10:38:00,75.2,73.4,30.00,WNW,296,8.0,10.0,94,0.00,,,0.01,meteohub,2013-07-10 14:38:00,
2013-07-10 10:43:00,75.0,73.2,30.00,WNW,294,9.0,9.0,94,0.00,,,0.01,meteohub,2013-07-10 14:43:00,
2013-07-10 10:48:00,75.0,72.9,30.00,NW,309,4.0,10.0,93,0.00,,,0.01,meteohub,2013-07-10 14:48:00,
2013-07-10 10:53:00,74.8,73.0,30.00,WNW,295,4.0,14.0,94,0.00,,,0.01,meteohub,2013-07-10 14:53:00,
2013-07-10 10:58:00,75.0,73.2,30.00,WNW,289,6.0,14.0,94,0.00,,,0.01,meteohub,2013-07-10 14:58:00,
2013-07-10 11:03:00,75.0,73.2,30.00,WNW,290,3.0,14.0,94,0.00,,,0.01,meteohub,2013-07-10 15:03:00,
2013-07-10 11:08:00,75.0,73.2,30.00,NW,318,4.0,12.0,94,0.00,,,0.01,meteohub,2013-07-10 15:08:00,
2013-07-10 11:13:00,75.4,73.2,29.99,NW,310,1.0,9.0,93,0.00,,,0.01,meteohub,2013-07-10 15:13:00,
2013-07-10 11:18:00,75.7,73.6,30.00,WNW,284,4.0,8.0,93,0.00,,,0.01,meteohub,2013-07-10 15:18:00,
2013-07-10 11:23:00,75.9,73.4,29.99,NNW,327,5.0,8.0,92,0.00,,,0.01,meteohub,2013-07-10 15:23:00,
2013-07-10 11:29:00,76.3,73.8,29.99,NW,320,6.0,9.0,92,0.00,,,0.01,meteohub,2013-07-10 15:29:00,
2013-07-10 11:34:00,76.3,73.4,29.99,WNW,297,3.0,9.0,91,0.00,,,0.01,meteohub,2013-07-10 15:34:00,
2013-07-10 11:39:00,76.5,73.6,29.99,West,275,8.0,9.0,91,0.00,,,0.01,meteohub,2013-07-10 15:39:00,
2013-07-10 11:44:00,76.6,73.8,29.99,West,278,5.0,9.0,91,0.00,,,0.01,meteohub,2013-07-10 15:44:00,
2013-07-10 11:49:00,77.2,73.9,29.99,West,278,8.0,9.0,90,0.00,,,0.01,meteohub,2013-07-10 15:49:00,
2013-07-10 11:54:00,77.5,73.8,29.99,West,263,9.0,11.0,88,0.00,,,0.01,meteohub,2013-07-10 15:54:00,
2013-07-10 11:59:00,77.5,73.8,29.99,WSW,247,5.0,12.0,88,0.00,,,0.01,meteohub,2013-07-10 15:59:00,
2013-07-10 12:04:00,77.9,73.8,29.99,NW,320,5.0,12.0,87,0.00,,,0.01,meteohub,2013-07-10 16:04:00,
2013-07-10 12:09:00,77.5,73.4,29.99,NW,321,8.0,12.0,87,0.00,,,0.01,meteohub,2013-07-10 16:09:00,
2013-07-10 12:14:00,77.5,73.4,29.99,West,270,8.0,11.0,87,0.00,,,0.01,meteohub,2013-07-10 16:14:00,
2013-07-10 12:19:00,77.7,73.6,29.99,NW,322,6.0,11.0,87,0.00,,,0.01,meteohub,2013-07-10 16:19:00,
2013-07-10 12:24:00,77.5,73.0,29.99,West,260,5.0,13.0,86,0.00,,,0.01,meteohub,2013-07-10 16:24:00,
2013-07-10 12:29:00,77.4,73.2,29.99,West,278,6.0,13.0,87,0.00,,,0.01,meteohub,2013-07-10 16:29:00,
2013-07-10 12:34:00,77.4,73.2,29.99,West,260,6.0,12.0,87,0.00,,,0.01,meteohub,2013-07-10 16:34:00,
2013-07-10 12:40:00,77.7,73.2,29.99,West,262,9.0,12.0,86,0.00,,,0.01,meteohub,2013-07-10 16:40:00,
2013-07-10 12:45:00,77.9,73.8,29.98,West,277,8.0,11.0,87,0.00,,,0.01,meteohub,2013-07-10 16:45:00,
2013-07-10 12:50:00,77.7,73.2,29.98,WSW,253,6.0,11.0,86,0.00,,,0.01,meteohub,2013-07-10 16:50:00,
2013-07-10 12:55:00,78.1,73.2,29.98,NW,323,9.0,11.0,85,0.00,,,0.01,meteohub,2013-07-10 16:55:00,
2013-07-10 13:00:00,78.1,73.6,29.97,WNW,294,8.0,13.0,86,0.00,,,0.01,meteohub,2013-07-10 17:00:00,
2013-07-10 13:05:00,78.3,73.4,29.97,NW,306,8.0,13.0,85,0.00,,,0.01,meteohub,2013-07-10 17:05:00,
2013-07-10 13:10:00,78.4,73.2,29.97,WNW,302,6.0,14.0,84,0.00,,,0.01,meteohub,2013-07-10 17:10:00,
2013-07-10 13:15:00,78.3,73.0,29.97,WNW,298,7.0,14.0,84,0.00,,,0.01,meteohub,2013-07-10 17:15:00,
2013-07-10 13:20:00,78.4,73.6,29.97,WNW,288,12.0,14.0,85,0.00,,,0.01,meteohub,2013-07-10 17:20:00,
2013-07-10 13:25:00,78.4,73.2,29.97,West,263,7.0,15.0,84,0.00,,,0.01,meteohub,2013-07-10 17:25:00,
2013-07-10 13:30:00,78.1,73.2,29.97,NW,309,5.0,15.0,85,0.00,,,0.01,meteohub,2013-07-10 17:30:00,
2013-07-10 13:35:00,78.1,73.2,29.96,West,277,9.0,15.0,85,0.00,,,0.01,meteohub,2013-07-10 17:35:00,
2013-07-10 13:40:00,78.4,73.6,29.96,WNW,286,8.0,16.0,85,0.00,,,0.01,meteohub,2013-07-10 17:40:00,
2013-07-10 13:46:00,78.6,73.4,29.96,West,273,10.0,16.0,84,0.00,,,0.01,meteohub,2013-07-10 17:46:00,
2013-07-10 13:51:00,78.3,73.4,29.96,WNW,292,8.0,16.0,85,0.00,,,0.01,meteohub,2013-07-10 17:51:00,
2013-07-10 13:56:00,78.3,73.4,29.96,WSW,255,9.0,17.0,85,0.00,,,0.01,meteohub,2013-07-10 17:56:00,
2013-07-10 14:01:00,78.3,73.4,29.96,NW,311,8.0,17.0,85,0.00,,,0.01,meteohub,2013-07-10 18:01:00,
2013-07-10 14:06:00,78.4,73.2,29.95,West,279,8.0,17.0,84,0.00,,,0.01,meteohub,2013-07-10 18:06:00,
2013-07-10 14:11:00,78.4,73.6,29.95,WNW,301,5.0,16.0,85,0.00,,,0.01,meteohub,2013-07-10 18:11:00,
2013-07-10 14:16:00,78.4,73.2,29.95,West,269,7.0,16.0,84,0.00,,,0.01,meteohub,2013-07-10 18:16:00,
2013-07-10 14:21:00,78.3,73.0,29.95,WNW,291,10.0,19.0,84,0.00,,,0.01,meteohub,2013-07-10 18:21:00,
2013-07-10 14:26:00,78.4,73.2,29.95,NNW,331,7.0,19.0,84,0.00,,,0.01,meteohub,2013-07-10 18:26:00,
2013-07-10 14:31:00,78.8,73.6,29.94,WNW,285,17.0,19.0,84,0.00,,,0.01,meteohub,2013-07-10 18:31:00,
2013-07-10 14:36:00,79.2,73.9,29.94,WNW,296,11.0,18.0,84,0.00,,,0.01,meteohub,2013-07-10 18:36:00,
2013-07-10 14:41:00,79.0,73.4,29.94,WNW,292,10.0,17.0,83,0.00,,,0.01,meteohub,2013-07-10 18:41:00,
2013-07-10 14:46:00,79.3,74.5,29.94,West,271,7.0,17.0,85,0.00,,,0.01,meteohub,2013-07-10 18:46:00,
2013-07-10 14:51:00,79.2,74.3,29.94,West,264,9.0,15.0,85,0.00,,,0.01,meteohub,2013-07-10 18:51:00,
2013-07-10 14:56:00,79.0,74.5,29.94,WSW,246,5.0,15.0,86,0.00,,,0.01,meteohub,2013-07-10 18:56:00,
2013-07-10 15:02:00,78.6,74.1,29.94,NW,325,8.0,15.0,86,0.00,,,0.01,meteohub,2013-07-10 19:02:00,
2013-07-10 15:07:00,78.4,73.9,29.93,WSW,254,8.0,13.0,86,0.00,,,0.01,meteohub,2013-07-10 19:07:00,
2013-07-10 15:12:00,78.3,74.1,29.93,WNW,290,6.0,12.0,87,0.00,,,0.01,meteohub,2013-07-10 19:12:00,
2013-07-10 15:17:00,78.4,74.3,29.93,NW,306,9.0,13.0,87,0.00,,,0.01,meteohub,2013-07-10 19:17:00,
2013-07-10 15:22:00,78.3,74.1,29.93,NW,311,11.0,15.0,87,0.00,,,0.01,meteohub,2013-07-10 19:22:00,
2013-07-10 15:27:00,78.3,74.1,29.93,West,278,7.0,16.0,87,0.00,,,0.01,meteohub,2013-07-10 19:27:00,
2013-07-10 15:32:00,78.1,73.9,29.92,WNW,290,5.0,17.0,87,0.00,,,0.01,meteohub,2013-07-10 19:32:00,
2013-07-10 15:37:00,78.3,74.1,29.92,WNW,299,10.0,17.0,87,0.00,,,0.01,meteohub,2013-07-10 19:37:00,
2013-07-10 15:42:00,78.1,74.3,29.92,WSW,258,8.0,17.0,88,0.00,,,0.01,meteohub,2013-07-10 19:42:00,
2013-07-10 15:47:00,77.5,73.8,29.92,WNW,289,10.0,14.0,88,0.00,,,0.01,meteohub,2013-07-10 19:47:00,
2013-07-10 15:52:00,77.5,74.1,29.92,North,9,5.0,17.0,89,0.00,,,0.01,meteohub,2013-07-10 19:52:00,
2013-07-10 15:57:00,77.2,73.8,29.91,SSW,202,5.0,17.0,89,0.00,,,0.01,meteohub,2013-07-10 19:57:00,
2013-07-10 16:02:00,76.8,73.4,29.91,West,271,9.0,16.0,89,0.00,,,0.01,meteohub,2013-07-10 20:02:00,
2013-07-10 16:07:00,76.6,73.4,29.91,NW,306,7.0,16.0,90,0.00,,,0.01,meteohub,2013-07-10 20:07:00,
2013-07-10 16:12:00,76.8,73.6,29.91,NNW,329,5.0,16.0,90,0.00,,,0.01,meteohub,2013-07-10 20:12:00,
2013-07-10 16:17:00,76.6,73.4,29.90,NNW,342,9.0,13.0,90,0.00,,,0.01,meteohub,2013-07-10 20:17:00,
2013-07-10 16:22:00,76.6,73.4,29.90,WNW,286,7.0,14.0,90,0.00,,,0.01,meteohub,2013-07-10 20:22:00,
2013-07-10 16:27:00,76.6,73.8,29.90,WNW,293,7.0,14.0,91,0.00,,,0.01,meteohub,2013-07-10 20:27:00,
2013-07-10 16:32:00,76.6,73.8,29.90,WNW,284,4.0,15.0,91,0.00,,,0.01,meteohub,2013-07-10 20:32:00,
2013-07-10 16:37:00,76.6,73.8,29.90,West,274,7.0,15.0,91,0.00,,,0.01,meteohub,2013-07-10 20:37:00,
2013-07-10 16:42:00,76.5,73.6,29.90,NW,323,7.0,15.0,91,0.00,,,0.01,meteohub,2013-07-10 20:42:00,
2013-07-10 16:47:00,76.5,73.6,29.90,West,279,8.0,15.0,91,0.00,,,0.01,meteohub,2013-07-10 20:47:00,
2013-07-10 16:52:00,76.5,73.9,29.90,WNW,288,9.0,14.0,92,0.00,,,0.01,meteohub,2013-07-10 20:52:00,
2013-07-10 16:57:00,76.5,73.9,29.90,NW,305,9.0,14.0,92,0.00,,,0.01,meteohub,2013-07-10 20:57:00,
2013-07-10 17:02:00,76.5,73.9,29.89,NW,306,8.0,15.0,92,0.00,,,0.01,meteohub,2013-07-10 21:02:00,
2013-07-10 17:07:00,76.5,73.9,29.89,WNW,291,9.0,15.0,92,0.00,,,0.01,meteohub,2013-07-10 21:07:00,
2013-07-10 17:12:00,76.6,74.1,29.89,NNW,327,5.0,15.0,92,0.00,,,0.01,meteohub,2013-07-10 21:12:00,
2013-07-10 17:17:00,76.6,74.1,29.89,NW,306,4.0,15.0,92,0.00,,,0.01,meteohub,2013-07-10 21:17:00,
2013-07-10 17:22:00,76.8,73.9,29.89,NW,323,8.0,15.0,91,0.00,,,0.01,meteohub,2013-07-10 21:22:00,
2013-07-10 17:27:00,76.8,73.9,29.89,West,280,6.0,12.0,91,0.00,,,0.01,meteohub,2013-07-10 21:27:00,
2013-07-10 17:32:00,77.0,74.1,29.88,NW,319,9.0,16.0,91,0.00,,,0.01,meteohub,2013-07-10 21:32:00,
2013-07-10 17:37:00,77.0,74.1,29.88,NW,309,9.0,16.0,91,0.00,,,0.01,meteohub,2013-07-10 21:37:00,
2013-07-10 17:42:00,76.8,73.9,29.88,NW,313,8.0,16.0,91,0.00,,,0.01,meteohub,2013-07-10 21:42:00,
2013-07-10 17:47:00,76.8,73.9,29.88,WNW,292,8.0,19.0,91,0.00,,,0.01,meteohub,2013-07-10 21:47:00,
2013-07-10 17:52:00,77.0,74.1,29.87,WNW,296,4.0,19.0,91,0.00,,,0.01,meteohub,2013-07-10 21:52:00,
2013-07-10 17:57:00,77.2,73.9,29.87,NW,311,7.0,19.0,90,0.00,,,0.01,meteohub,2013-07-10 21:57:00,
2013-07-10 18:02:00,77.2,73.9,29.87,NNW,327,7.0,16.0,90,0.00,,,0.01,meteohub,2013-07-10 22:02:00,
2013-07-10 18:07:00,77.2,73.9,29.87,West,261,6.0,16.0,90,0.00,,,0.01,meteohub,2013-07-10 22:07:00,
2013-07-10 18:12:00,77.0,73.8,29.87,WNW,294,7.0,16.0,90,0.00,,,0.01,meteohub,2013-07-10 22:12:00,
2013-07-10 18:17:00,76.8,73.6,29.87,NW,304,4.0,16.0,90,0.00,,,0.01,meteohub,2013-07-10 22:17:00,
2013-07-10 18:22:00,76.8,73.6,29.87,WNW,299,6.0,16.0,90,0.00,,,0.01,meteohub,2013-07-10 22:22:00,
2013-07-10 18:27:00,77.0,73.8,29.87,WNW,297,8.0,11.0,90,0.00,,,0.01,meteohub,2013-07-10 22:27:00,
2013-07-10 18:32:00,76.8,73.6,29.86,WNW,290,6.0,17.0,90,0.00,,,0.01,meteohub,2013-07-10 22:32:00,
2013-07-10 18:37:00,76.6,73.4,29.86,WNW,285,9.0,17.0,90,0.00,,,0.01,meteohub,2013-07-10 22:37:00,
2013-07-10 18:42:00,76.6,73.4,29.86,West,271,13.0,18.0,90,0.00,,,0.01,meteohub,2013-07-10 22:42:00,
2013-07-10 18:47:00,76.6,73.4,29.86,NW,314,7.0,18.0,90,0.00,,,0.01,meteohub,2013-07-10 22:47:00,
2013-07-10 18:52:00,76.5,73.2,29.86,NW,325,9.0,18.0,90,0.00,,,0.01,meteohub,2013-07-10 22:52:00,
2013-07-10 18:57:00,76.3,73.4,29.86,NW,306,11.0,16.0,91,0.00,,,0.01,meteohub,2013-07-10 22:57:00,
2013-07-10 19:02:00,76.1,73.2,29.86,NW,305,4.0,16.0,91,0.00,,,0.01,meteohub,2013-07-10 23:02:00,
2013-07-10 19:07:00,75.9,73.0,29.87,WNW,294,3.0,16.0,91,0.00,,,0.01,meteohub,2013-07-10 23:07:00,
2013-07-10 19:12:00,75.9,73.0,29.87,NNW,328,11.0,16.0,91,0.00,,,0.01,meteohub,2013-07-10 23:12:00,
2013-07-10 19:17:00,75.9,73.0,29.87,NW,304,4.0,16.0,91,0.00,,,0.01,meteohub,2013-07-10 23:17:00,
2013-07-10 19:22:00,75.9,73.0,29.87,West,275,8.0,15.0,91,0.00,,,0.01,meteohub,2013-07-10 23:22:00,
2013-07-10 19:27:00,75.9,73.0,29.87,WNW,290,6.0,14.0,91,0.00,,,0.01,meteohub,2013-07-10 23:27:00,
2013-07-10 19:32:00,75.7,72.9,29.86,NW,315,2.0,13.0,91,0.00,,,0.01,meteohub,2013-07-10 23:32:00,
2013-07-10 19:37:00,75.7,73.2,29.86,NW,317,5.0,13.0,92,0.00,,,0.01,meteohub,2013-07-10 23:37:00,
2013-07-10 19:42:00,75.7,73.2,29.86,West,260,9.0,12.0,92,0.00,,,0.01,meteohub,2013-07-10 23:42:00,
2013-07-10 19:47:00,75.9,73.0,29.86,WNW,286,10.0,13.0,91,0.00,,,0.01,meteohub,2013-07-10 23:47:00,
2013-07-10 19:52:00,75.9,73.4,29.87,WNW,293,6.0,13.0,92,0.00,,,0.01,meteohub,2013-07-10 23:52:00,
2013-07-10 19:57:00,75.9,73.4,29.87,WNW,296,5.0,13.0,92,0.00,,,0.01,meteohub,2013-07-10 23:57:00,
2013-07-10 20:02:00,75.9,73.4,29.87,West,277,7.0,14.0,92,0.00,,,0.01,meteohub,2013-07-11 00:02:00,
2013-07-10 20:07:00,75.9,73.4,29.87,NW,304,2.0,14.0,92,0.00,,,0.01,meteohub,2013-07-11 00:07:00,
2013-07-10 20:12:00,75.9,73.4,29.87,WNW,286,6.0,14.0,92,0.00,,,0.01,meteohub,2013-07-11 00:12:00,
2013-07-10 20:17:00,75.9,73.4,29.87,WNW,295,10.0,11.0,92,0.00,,,0.01,meteohub,2013-07-11 00:17:00,
2013-07-10 20:22:00,76.1,73.6,29.87,WNW,293,8.0,11.0,92,0.00,,,0.01,meteohub,2013-07-11 00:22:00,
2013-07-10 20:27:00,76.1,73.6,29.87,WNW,297,11.0,12.0,92,0.00,,,0.01,meteohub,2013-07-11 00:27:00,
2013-07-10 20:32:00,76.3,73.4,29.88,West,273,7.0,12.0,91,0.00,,,0.01,meteohub,2013-07-11 00:32:00,
2013-07-10 20:37:00,76.3,73.4,29.88,NW,306,3.0,12.0,91,0.00,,,0.01,meteohub,2013-07-11 00:37:00,
2013-07-10 20:42:00,76.3,73.4,29.88,WNW,301,3.0,15.0,91,0.00,,,0.01,meteohub,2013-07-11 00:42:00,
2013-07-10 20:47:00,76.3,73.4,29.88,NW,305,7.0,15.0,91,0.00,,,0.01,meteohub,2013-07-11 00:47:00,
2013-07-10 20:52:00,76.1,73.2,29.89,WNW,297,6.0,11.0,91,0.00,,,0.01,meteohub,2013-07-11 00:52:00,
2013-07-10 20:57:00,75.9,73.0,29.89,NW,310,4.0,13.0,91,0.00,,,0.01,meteohub,2013-07-11 00:57:00,
2013-07-10 21:02:00,75.7,72.9,29.89,WNW,296,4.0,15.0,91,0.00,,,0.01,meteohub,2013-07-11 01:02:00,
2013-07-10 21:07:00,75.7,72.9,29.88,WNW,302,14.0,15.0,91,0.00,,,0.01,meteohub,2013-07-11 01:07:00,
2013-07-10 21:12:00,75.6,72.7,29.88,WNW,297,4.0,17.0,91,0.00,,,0.01,meteohub,2013-07-11 01:12:00,
2013-07-10 21:17:00,75.6,72.7,29.89,West,276,8.0,17.0,91,0.00,,,0.01,meteohub,2013-07-11 01:17:00,
2013-07-10 21:22:00,75.4,72.5,29.88,NW,316,7.0,17.0,91,0.00,,,0.01,meteohub,2013-07-11 01:22:00,
2013-07-10 21:27:00,75.4,72.5,29.89,WNW,294,3.0,17.0,91,0.00,,,0.01,meteohub,2013-07-11 01:27:00,
2013-07-10 21:32:00,75.4,72.5,29.89,NW,317,9.0,17.0,91,0.00,,,0.01,meteohub,2013-07-11 01:32:00,
2013-07-10 21:37:00,75.2,72.3,29.89,WNW,302,6.0,14.0,91,0.00,,,0.01,meteohub,2013-07-11 01:37:00,
2013-07-10 21:42:00,75.2,72.7,29.89,NW,318,8.0,12.0,92,0.00,,,0.01,meteohub,2013-07-11 01:42:00,
2013-07-10 21:47:00,75.2,72.7,29.89,NW,306,4.0,14.0,92,0.00,,,0.01,meteohub,2013-07-11 01:47:00,
2013-07-10 21:52:00,75.2,72.7,29.88,West,269,7.0,14.0,92,0.00,,,0.01,meteohub,2013-07-11 01:52:00,
2013-07-10 21:57:00,75.2,72.7,29.88,WNW,294,6.0,14.0,92,0.00,,,0.01,meteohub,2013-07-11 01:57:00,
2013-07-10 22:02:00,75.2,72.7,29.88,West,274,6.0,13.0,92,0.00,,,0.01,meteohub,2013-07-11 02:02:00,
2013-07-10 22:07:00,75.4,72.9,29.88,WNW,302,8.0,18.0,92,0.00,,,0.01,meteohub,2013-07-11 02:07:00,
2013-07-10 22:12:00,75.4,72.9,29.89,WNW,284,5.0,18.0,92,0.00,,,0.01,meteohub,2013-07-11 02:12:00,
2013-07-10 22:17:00,75.4,72.9,29.88,WNW,303,5.0,18.0,92,0.00,,,0.01,meteohub,2013-07-11 02:17:00,
2013-07-10 22:22:00,75.4,72.9,29.88,NNW,340,5.0,13.0,92,0.00,,,0.01,meteohub,2013-07-11 02:22:00,
2013-07-10 22:27:00,75.2,73.0,29.88,WNW,292,12.0,14.0,93,0.00,,,0.01,meteohub,2013-07-11 02:27:00,
2013-07-10 22:32:00,75.2,73.0,29.88,NW,326,7.0,14.0,93,0.00,,,0.01,meteohub,2013-07-11 02:32:00,
2013-07-10 22:37:00,75.2,73.0,29.88,WNW,296,5.0,14.0,93,0.00,,,0.01,meteohub,2013-07-11 02:37:00,
2013-07-10 22:42:00,75.2,73.0,29.88,NNW,348,6.0,13.0,93,0.00,,,0.01,meteohub,2013-07-11 02:42:00,
2013-07-10 22:47:00,75.2,73.0,29.88,WNW,298,6.0,11.0,93,0.00,,,0.01,meteohub,2013-07-11 02:47:00,
2013-07-10 22:52:00,75.2,73.0,29.88,WNW,284,7.0,13.0,93,0.00,,,0.01,meteohub,2013-07-11 02:52:00,
2013-07-10 22:57:00,75.0,72.9,29.87,NW,323,6.0,13.0,93,0.00,,,0.01,meteohub,2013-07-11 02:57:00,
2013-07-10 23:02:00,75.0,72.9,29.87,West,276,5.0,13.0,93,0.00,,,0.01,meteohub,2013-07-11 03:02:00,
2013-07-10 23:07:00,75.0,72.9,29.87,WNW,282,8.0,13.0,93,0.00,,,0.01,meteohub,2013-07-11 03:07:00,
2013-07-10 23:12:00,75.0,72.9,29.87,WNW,283,6.0,13.0,93,0.00,,,0.01,meteohub,2013-07-11 03:12:00,
2013-07-10 23:17:00,75.0,72.9,29.87,WNW,300,6.0,9.0,93,0.00,,,0.01,meteohub,2013-07-11 03:17:00,
2013-07-10 23:22:00,74.8,72.7,29.87,WNW,298,5.0,11.0,93,0.00,,,0.01,meteohub,2013-07-11 03:22:00,
2013-07-10 23:27:00,75.0,72.9,29.87,WNW,290,7.0,11.0,93,0.00,,,0.01,meteohub,2013-07-11 03:27:00,
2013-07-10 23:32:00,74.8,72.7,29.87,West,265,6.0,14.0,93,0.00,,,0.01,meteohub,2013-07-11 03:32:00,
2013-07-10 23:37:00,74.8,72.7,29.87,WNW,294,4.0,14.0,93,0.00,,,0.01,meteohub,2013-07-11 03:37:00,
2013-07-10 23:42:00,74.8,72.7,29.87,WNW,292,2.0,9.0,93,0.00,,,0.01,meteohub,2013-07-11 03:42:00,
2013-07-10 23:47:00,74.8,72.7,29.87,NW,322,6.0,8.0,93,0.00,,,0.01,meteohub,2013-07-11 03:47:00,
2013-07-10 23:52:00,75.0,72.9,29.87,WNW,302,2.0,8.0,93,0.00,,,0.01,meteohub,2013-07-11 03:52:00,
2013-07-10 23:57:00,75.0,72.9,29.86,NW,319,1.0,8.0,93,0.00,,,0.01,meteohub,2013-07-11 03:57:00,